sensor_id;sensor_type;location;lat;lon;timestamp;pressure;altitude;pressure_sealevel;temperature;humidity
19520;BME280;9904;52.246;20.898;2024-03-22T00:00:07;100186.13;;;8.23;100.00
19520;BME280;9904;52.246;20.898;2024-03-22T00:02:37;100190.06;;;8.09;100.00
19520;BME280;9904;52.246;20.898;2024-03-22T00:05:03;100175.72;;;8.09;100.00
19520;BME280;9904;52.246;20.898;2024-03-22T00:07:29;100181.13;;;8.09;100.00
19520;BME280;9904;52.246;20.898;2024-03-22T00:09:55;100180.81;;;8.02;100.00
19520;BME280;9904;52.246;20.898;2024-03-22T00:12:20;100167.56;;;7.89;100.00
19520;BME280;9904;52.246;20.898;2024-03-22T00:14:46;100171.88;;;7.92;100.00
19520;BME280;9904;52.246;20.898;2024-03-22T00:17:12;100171.53;;;7.85;100.00
19520;BME280;9904;52.246;20.898;2024-03-22T00:19:37;100167.00;;;7.86;100.00
19520;BME280;9904;52.246;20.898;2024-03-22T00:22:03;100173.25;;;7.86;100.00
19520;BME280;9904;52.246;20.898;2024-03-22T00:24:29;100175.81;;;7.88;100.00
19520;BME280;9904;52.246;20.898;2024-03-22T00:26:54;100168.03;;;7.95;100.00
19520;BME280;9904;52.246;20.898;2024-03-22T00:29:20;100171.53;;;7.85;100.00
19520;BME280;9904;52.246;20.898;2024-03-22T00:31:45;100166.47;;;7.92;100.00
19520;BME280;9904;52.246;20.898;2024-03-22T00:34:11;100167.28;;;7.83;100.00
19520;BME280;9904;52.246;20.898;2024-03-22T00:36:37;100164.75;;;7.81;100.00
19520;BME280;9904;52.246;20.898;2024-03-22T00:39:02;100171.78;;;7.72;100.00
19520;BME280;9904;52.246;20.898;2024-03-22T00:41:28;100165.41;;;7.73;100.00
19520;BME280;9904;52.246;20.898;2024-03-22T00:43:54;100166.66;;;7.69;100.00
19520;BME280;9904;52.246;20.898;2024-03-22T00:46:19;100162.09;;;7.60;100.00
19520;BME280;9904;52.246;20.898;2024-03-22T00:48:45;100164.19;;;7.56;100.00
19520;BME280;9904;52.246;20.898;2024-03-22T00:51:11;100159.09;;;7.63;100.00
19520;BME280;9904;52.246;20.898;2024-03-22T00:53:36;100167.19;;;7.63;100.00
19520;BME280;9904;52.246;20.898;2024-03-22T00:56:02;100146.31;;;7.55;100.00
19520;BME280;9904;52.246;20.898;2024-03-22T00:58:28;100148.31;;;7.63;100.00
19520;BME280;9904;52.246;20.898;2024-03-22T01:00:54;100155.84;;;7.59;100.00
19520;BME280;9904;52.246;20.898;2024-03-22T01:03:20;100154.41;;;7.55;100.00
19520;BME280;9904;52.246;20.898;2024-03-22T01:05:46;100162.09;;;7.60;100.00
19520;BME280;9904;52.246;20.898;2024-03-22T01:08:12;100155.53;;;7.53;100.00
19520;BME280;9904;52.246;20.898;2024-03-22T01:10:37;100159.78;;;7.55;100.00
19520;BME280;9904;52.246;20.898;2024-03-22T01:13:03;100167.44;;;7.50;100.00
19520;BME280;9904;52.246;20.898;2024-03-22T01:15:28;100155.00;;;7.59;100.00
19520;BME280;9904;52.246;20.898;2024-03-22T01:17:55;100164.06;;;7.58;100.00
19520;BME280;9904;52.246;20.898;2024-03-22T01:20:21;100160.91;;;7.53;100.00
19520;BME280;9904;52.246;20.898;2024-03-22T01:22:46;100156.56;;;7.61;100.00
19520;BME280;9904;52.246;20.898;2024-03-22T01:25:12;100146.91;;;7.59;100.00
19520;BME280;9904;52.246;20.898;2024-03-22T01:27:38;100157.84;;;7.57;100.00
19520;BME280;9904;52.246;20.898;2024-03-22T01:30:04;100151.31;;;7.60;100.00
19520;BME280;9904;52.246;20.898;2024-03-22T01:32:29;100150.72;;;7.56;100.00
19520;BME280;9904;52.246;20.898;2024-03-22T01:34:57;100151.59;;;7.67;100.00
19520;BME280;9904;52.246;20.898;2024-03-22T01:37:22;100152.22;;;7.70;100.00
19520;BME280;9904;52.246;20.898;2024-03-22T01:39:48;100150.78;;;7.76;100.00
19520;BME280;9904;52.246;20.898;2024-03-22T01:42:14;100161.13;;;7.71;100.00
19520;BME280;9904;52.246;20.898;2024-03-22T01:44:39;100149.84;;;7.87;100.00
19520;BME280;9904;52.246;20.898;2024-03-22T01:47:05;100149.56;;;7.80;100.00
19520;BME280;9904;52.246;20.898;2024-03-22T01:49:30;100153.63;;;7.74;100.00
19520;BME280;9904;52.246;20.898;2024-03-22T01:51:57;100153.97;;;7.81;100.00
19520;BME280;9904;52.246;20.898;2024-03-22T01:54:22;100149.25;;;7.83;100.00
19520;BME280;9904;52.246;20.898;2024-03-22T01:56:48;100154.72;;;7.93;100.00
19520;BME280;9904;52.246;20.898;2024-03-22T01:59:14;100146.41;;;7.75;100.00
19520;BME280;9904;52.246;20.898;2024-03-22T02:01:40;100140.91;;;7.86;100.00
19520;BME280;9904;52.246;20.898;2024-03-22T02:04:06;100134.78;;;7.84;100.00
19520;BME280;9904;52.246;20.898;2024-03-22T02:06:32;100136.50;;;7.85;100.00
19520;BME280;9904;52.246;20.898;2024-03-22T02:08:57;100139.53;;;7.92;100.00
19520;BME280;9904;52.246;20.898;2024-03-22T02:11:25;100136.25;;;7.88;100.00
19520;BME280;9904;52.246;20.898;2024-03-22T02:13:51;100142.16;;;7.82;100.00
19520;BME280;9904;52.246;20.898;2024-03-22T02:16:16;100134.50;;;7.77;100.00
19520;BME280;9904;52.246;20.898;2024-03-22T02:18:42;100133.25;;;7.82;100.00
19520;BME280;9904;52.246;20.898;2024-03-22T02:21:09;100130.41;;;7.83;100.00
19520;BME280;9904;52.246;20.898;2024-03-22T02:23:37;100133.81;;;7.85;100.00
19520;BME280;9904;52.246;20.898;2024-03-22T02:26:03;100136.09;;;7.90;100.00
19520;BME280;9904;52.246;20.898;2024-03-22T02:28:30;100125.00;;;7.83;100.00
19520;BME280;9904;52.246;20.898;2024-03-22T02:30:56;100130.41;;;7.83;100.00
19520;BME280;9904;52.246;20.898;2024-03-22T02:33:21;100127.59;;;7.85;100.00
19520;BME280;9904;52.246;20.898;2024-03-22T02:35:48;100127.47;;;7.96;100.00
19520;BME280;9904;52.246;20.898;2024-03-22T02:38:13;100131.56;;;7.90;100.00
19520;BME280;9904;52.246;20.898;2024-03-22T02:40:39;100126.44;;;7.87;100.00
19520;BME280;9904;52.246;20.898;2024-03-22T02:43:04;100133.72;;;7.97;100.00
19520;BME280;9904;52.246;20.898;2024-03-22T02:45:31;100129.31;;;7.96;100.00
19520;BME280;9904;52.246;20.898;2024-03-22T02:47:57;100131.13;;;7.95;100.00
19520;BME280;9904;52.246;20.898;2024-03-22T02:50:22;100129.31;;;7.96;100.00
19520;BME280;9904;52.246;20.898;2024-03-22T02:52:48;100130.31;;;7.95;100.00
19520;BME280;9904;52.246;20.898;2024-03-22T02:55:14;100122.94;;;7.97;100.00
19520;BME280;9904;52.246;20.898;2024-03-22T02:57:39;100126.63;;;7.96;100.00
19520;BME280;9904;52.246;20.898;2024-03-22T03:00:06;100123.94;;;7.96;100.00
19520;BME280;9904;52.246;20.898;2024-03-22T03:02:31;100126.72;;;7.94;100.00
19520;BME280;9904;52.246;20.898;2024-03-22T03:04:57;100129.31;;;7.96;100.00
19520;BME280;9904;52.246;20.898;2024-03-22T03:07:24;100124.75;;;7.96;100.00
19520;BME280;9904;52.246;20.898;2024-03-22T03:09:50;100124.91;;;7.95;100.00
19520;BME280;9904;52.246;20.898;2024-03-22T03:12:16;100123.94;;;7.96;100.00
19520;BME280;9904;52.246;20.898;2024-03-22T03:14:41;100126.88;;;7.92;100.00
19520;BME280;9904;52.246;20.898;2024-03-22T03:17:07;100121.75;;;7.89;100.00
19520;BME280;9904;52.246;20.898;2024-03-22T03:19:33;100137.97;;;7.99;100.00
19520;BME280;9904;52.246;20.898;2024-03-22T03:21:59;100138.06;;;7.88;100.00
19520;BME280;9904;52.246;20.898;2024-03-22T03:24:24;100134.53;;;7.87;100.00
19520;BME280;9904;52.246;20.898;2024-03-22T03:26:50;100140.47;;;7.81;100.00
19520;BME280;9904;52.246;20.898;2024-03-22T03:29:15;100131.69;;;7.79;100.00
19520;BME280;9904;52.246;20.898;2024-03-22T03:31:41;100136.75;;;7.72;100.00
19520;BME280;9904;52.246;20.898;2024-03-22T03:34:06;100134.66;;;7.86;100.00
19520;BME280;9904;52.246;20.898;2024-03-22T03:36:32;100142.53;;;7.68;100.00
19520;BME280;9904;52.246;20.898;2024-03-22T03:38:57;100142.81;;;7.65;100.00
19520;BME280;9904;52.246;20.898;2024-03-22T03:41:23;100140.31;;;7.42;100.00
19520;BME280;9904;52.246;20.898;2024-03-22T03:43:48;100135.19;;;7.39;100.00
19520;BME280;9904;52.246;20.898;2024-03-22T03:46:14;100147.28;;;7.23;100.00
19520;BME280;9904;52.246;20.898;2024-03-22T03:48:40;100149.19;;;7.33;100.00
19520;BME280;9904;52.246;20.898;2024-03-22T03:51:05;100151.34;;;7.39;100.00
19520;BME280;9904;52.246;20.898;2024-03-22T03:53:31;100157.09;;;7.24;100.00
19520;BME280;9904;52.246;20.898;2024-03-22T03:55:56;100164.56;;;7.21;100.00
19520;BME280;9904;52.246;20.898;2024-03-22T03:58:22;100171.56;;;7.02;100.00
19520;BME280;9904;52.246;20.898;2024-03-22T04:00:48;100167.16;;;7.01;100.00
19520;BME280;9904;52.246;20.898;2024-03-22T04:03:13;100168.66;;;6.94;100.00
19520;BME280;9904;52.246;20.898;2024-03-22T04:05:39;100165.16;;;6.82;100.00
19520;BME280;9904;52.246;20.898;2024-03-22T04:08:05;100175.53;;;6.87;100.00
19520;BME280;9904;52.246;20.898;2024-03-22T04:10:30;100179.84;;;6.78;100.00
19520;BME280;9904;52.246;20.898;2024-03-22T04:12:56;100184.09;;;6.80;100.00
19520;BME280;9904;52.246;20.898;2024-03-22T04:15:21;100185.88;;;6.70;100.00
19520;BME280;9904;52.246;20.898;2024-03-22T04:17:47;100182.09;;;6.73;100.00
19520;BME280;9904;52.246;20.898;2024-03-22T04:20:12;100165.72;;;6.64;100.00
19520;BME280;9904;52.246;20.898;2024-03-22T04:22:38;100185.16;;;6.68;100.00
19520;BME280;9904;52.246;20.898;2024-03-22T04:25:04;100179.19;;;6.64;100.00
19520;BME280;9904;52.246;20.898;2024-03-22T04:27:30;100186.13;;;6.67;100.00
19520;BME280;9904;52.246;20.898;2024-03-22T04:29:55;100180.63;;;6.69;100.00
19520;BME280;9904;52.246;20.898;2024-03-22T04:32:21;100178.06;;;6.67;100.00
19520;BME280;9904;52.246;20.898;2024-03-22T04:34:46;100183.81;;;6.62;100.00
19520;BME280;9904;52.246;20.898;2024-03-22T04:37:12;100178.59;;;6.61;100.00
19520;BME280;9904;52.246;20.898;2024-03-22T04:39:39;100177.00;;;6.58;100.00
19520;BME280;9904;52.246;20.898;2024-03-22T04:42:05;100172.69;;;6.67;100.00
19520;BME280;9904;52.246;20.898;2024-03-22T04:44:31;100168.63;;;6.73;100.00
19520;BME280;9904;52.246;20.898;2024-03-22T04:46:56;100181.94;;;6.74;100.00
19520;BME280;9904;52.246;20.898;2024-03-22T04:49:22;100184.69;;;6.63;100.00
19520;BME280;9904;52.246;20.898;2024-03-22T04:51:48;100180.53;;;6.59;100.00
19520;BME280;9904;52.246;20.898;2024-03-22T04:54:13;100184.94;;;6.60;100.00
19520;BME280;9904;52.246;20.898;2024-03-22T04:56:39;100188.75;;;6.57;100.00
19520;BME280;9904;52.246;20.898;2024-03-22T04:59:05;100182.72;;;6.65;100.00
19520;BME280;9904;52.246;20.898;2024-03-22T05:01:31;100186.13;;;6.67;100.00
19520;BME280;9904;52.246;20.898;2024-03-22T05:03:56;100183.38;;;6.57;100.00
19520;BME280;9904;52.246;20.898;2024-03-22T05:06:22;100188.81;;;6.67;100.00
19520;BME280;9904;52.246;20.898;2024-03-22T05:08:48;100196.28;;;6.63;100.00
19520;BME280;9904;52.246;20.898;2024-03-22T05:11:13;100189.09;;;6.64;100.00
19520;BME280;9904;52.246;20.898;2024-03-22T05:13:39;100199.97;;;6.62;100.00
19520;BME280;9904;52.246;20.898;2024-03-22T05:16:07;100189.69;;;6.68;100.00
19520;BME280;9904;52.246;20.898;2024-03-22T05:18:33;100185.28;;;6.66;100.00
19520;BME280;9904;52.246;20.898;2024-03-22T05:20:58;100189.56;;;6.58;100.00
19520;BME280;9904;52.246;20.898;2024-03-22T05:23:24;100186.06;;;6.57;100.00
19520;BME280;9904;52.246;20.898;2024-03-22T05:25:49;100187.91;;;6.57;100.00
19520;BME280;9904;52.246;20.898;2024-03-22T05:28:15;100196.34;;;6.52;100.00
19520;BME280;9904;52.246;20.898;2024-03-22T05:30:41;100191.34;;;6.47;100.00
19520;BME280;9904;52.246;20.898;2024-03-22T05:33:06;100199.13;;;6.50;100.00
19520;BME280;9904;52.246;20.898;2024-03-22T05:35:32;100198.44;;;6.48;100.00
19520;BME280;9904;52.246;20.898;2024-03-22T05:37:58;100194.13;;;6.57;100.00
19520;BME280;9904;52.246;20.898;2024-03-22T05:40:23;100196.28;;;6.63;100.00
19520;BME280;9904;52.246;20.898;2024-03-22T05:42:49;100190.59;;;6.57;100.00
19520;BME280;9904;52.246;20.898;2024-03-22T05:45:14;100188.50;;;6.60;100.00
19520;BME280;9904;52.246;20.898;2024-03-22T05:47:40;100188.81;;;6.67;100.00
19520;BME280;9904;52.246;20.898;2024-03-22T05:50:06;100186.78;;;6.59;100.00
19520;BME280;9904;52.246;20.898;2024-03-22T05:52:33;100197.88;;;6.66;100.00
19520;BME280;9904;52.246;20.898;2024-03-22T05:54:59;100191.13;;;6.72;100.00
19520;BME280;9904;52.246;20.898;2024-03-22T05:57:25;100192.88;;;6.61;100.00
19520;BME280;9904;52.246;20.898;2024-03-22T05:59:50;100184.41;;;6.66;100.00
19520;BME280;9904;52.246;20.898;2024-03-22T06:02:16;100194.66;;;6.72;100.00
19520;BME280;9904;52.246;20.898;2024-03-22T06:04:42;100179.25;;;6.74;100.00
19520;BME280;9904;52.246;20.898;2024-03-22T06:07:08;100191.72;;;6.75;100.00
19520;BME280;9904;52.246;20.898;2024-03-22T06:09:33;100189.16;;;6.74;100.00
19520;BME280;9904;52.246;20.898;2024-03-22T06:12:05;100193.78;;;6.83;100.00
19520;BME280;9904;52.246;20.898;2024-03-22T06:14:31;100189.00;;;6.87;100.00
19520;BME280;9904;52.246;20.898;2024-03-22T06:16:56;100195.47;;;6.84;100.00
19520;BME280;9904;52.246;20.898;2024-03-22T06:19:23;100195.09;;;6.89;100.00
19520;BME280;9904;52.246;20.898;2024-03-22T06:21:49;100194.50;;;6.85;100.00
19520;BME280;9904;52.246;20.898;2024-03-22T06:24:14;100199.25;;;6.93;100.00
19520;BME280;9904;52.246;20.898;2024-03-22T06:26:40;100200.88;;;7.05;100.00
19520;BME280;9904;52.246;20.898;2024-03-22T06:29:05;100196.28;;;7.17;100.00
19520;BME280;9904;52.246;20.898;2024-03-22T06:31:31;100195.09;;;7.10;100.00
19520;BME280;9904;52.246;20.898;2024-03-22T06:33:57;100192.56;;;7.08;100.00
19520;BME280;9904;52.246;20.898;2024-03-22T06:36:31;100197.00;;;7.19;100.00
19520;BME280;9904;52.246;20.898;2024-03-22T06:38:58;100198.13;;;7.17;100.00
19520;BME280;9904;52.246;20.898;2024-03-22T06:41:25;100193.78;;;7.04;100.00
19520;BME280;9904;52.246;20.898;2024-03-22T06:43:51;100197.25;;;7.16;100.00
19520;BME280;9904;52.246;20.898;2024-03-22T06:46:17;100199.31;;;7.24;100.00
19520;BME280;9904;52.246;20.898;2024-03-22T06:48:43;100202.25;;;7.21;100.00
19520;BME280;9904;52.246;20.898;2024-03-22T06:51:08;100202.41;;;7.19;100.00
19520;BME280;9904;52.246;20.898;2024-03-22T06:53:34;100199.44;;;7.22;100.00
19520;BME280;9904;52.246;20.898;2024-03-22T06:55:59;100201.75;;;7.06;100.00
19520;BME280;9904;52.246;20.898;2024-03-22T06:58:25;100199.09;;;6.94;100.00
19520;BME280;9904;52.246;20.898;2024-03-22T07:00:51;100196.47;;;7.04;100.00
19520;BME280;9904;52.246;20.898;2024-03-22T07:03:16;100193.78;;;7.25;100.00
19520;BME280;9904;52.246;20.898;2024-03-22T07:05:43;100194.00;;;7.34;100.00
19520;BME280;9904;52.246;20.898;2024-03-22T07:08:08;100192.66;;;7.28;100.00
19520;BME280;9904;52.246;20.898;2024-03-22T07:10:38;100194.53;;;7.27;100.00
19520;BME280;9904;52.246;20.898;2024-03-22T07:13:05;100196.59;;;7.45;100.00
19520;BME280;9904;52.246;20.898;2024-03-22T07:15:31;100194.56;;;7.37;100.00
19520;BME280;9904;52.246;20.898;2024-03-22T07:17:58;100203.28;;;7.29;100.00
19520;BME280;9904;52.246;20.898;2024-03-22T07:20:24;100201.41;;;7.20;100.00
19520;BME280;9904;52.246;20.898;2024-03-22T07:22:50;100197.97;;;6.97;100.00
19520;BME280;9904;52.246;20.898;2024-03-22T07:25:15;100202.78;;;6.93;100.00
19520;BME280;9904;52.246;20.898;2024-03-22T07:27:41;100206.66;;;7.01;100.00
19520;BME280;9904;52.246;20.898;2024-03-22T07:30:07;100204.69;;;7.03;100.00
19520;BME280;9904;52.246;20.898;2024-03-22T07:32:33;100198.31;;;7.04;100.00
19520;BME280;9904;52.246;20.898;2024-03-22T07:34:58;100196.81;;;7.11;100.00
19520;BME280;9904;52.246;20.898;2024-03-22T07:37:24;100191.47;;;7.00;100.00
19520;BME280;9904;52.246;20.898;2024-03-22T07:39:50;100187.59;;;6.92;100.00
19520;BME280;9904;52.246;20.898;2024-03-22T07:42:16;100189.53;;;7.02;100.00
19520;BME280;9904;52.246;20.898;2024-03-22T07:44:42;100190.69;;;7.09;100.00
19520;BME280;9904;52.246;20.898;2024-03-22T07:47:08;100190.56;;;7.10;100.00
19520;BME280;9904;52.246;20.898;2024-03-22T07:49:34;100187.69;;;7.02;100.00
19520;BME280;9904;52.246;20.898;2024-03-22T07:52:02;100185.41;;;6.97;100.00
19520;BME280;9904;52.246;20.898;2024-03-22T07:54:27;100184.66;;;6.95;100.00
19520;BME280;9904;52.246;20.898;2024-03-22T07:56:53;100185.44;;;6.86;100.00
19520;BME280;9904;52.246;20.898;2024-03-22T07:59:19;100178.63;;;6.82;100.00
19520;BME280;9904;52.246;20.898;2024-03-22T08:01:44;100188.94;;;6.98;100.00
19520;BME280;9904;52.246;20.898;2024-03-22T08:04:10;100176.38;;;6.87;100.00
19520;BME280;9904;52.246;20.898;2024-03-22T08:06:35;100179.31;;;6.84;100.00
19520;BME280;9904;52.246;20.898;2024-03-22T08:09:01;100168.97;;;6.79;100.00
19520;BME280;9904;52.246;20.898;2024-03-22T08:11:28;100174.63;;;6.97;100.00
19520;BME280;9904;52.246;20.898;2024-03-22T08:13:54;100175.22;;;7.01;100.00
19520;BME280;9904;52.246;20.898;2024-03-22T08:16:27;100175.72;;;7.16;100.00
19520;BME280;9904;52.246;20.898;2024-03-22T08:18:53;100175.94;;;7.24;100.00
19520;BME280;9904;52.246;20.898;2024-03-22T08:21:18;100173.19;;;7.36;100.00
19520;BME280;9904;52.246;20.898;2024-03-22T08:23:44;100170.16;;;7.29;100.00
19520;BME280;9904;52.246;20.898;2024-03-22T08:26:09;100170.88;;;7.31;100.00
19520;BME280;9904;52.246;20.898;2024-03-22T08:28:35;100174.34;;;7.22;100.00
19520;BME280;9904;52.246;20.898;2024-03-22T08:31:04;100170.53;;;7.24;100.00
19520;BME280;9904;52.246;20.898;2024-03-22T08:33:30;100170.28;;;7.27;100.00
19520;BME280;9904;52.246;20.898;2024-03-22T08:35:56;100165.22;;;7.34;100.00
19520;BME280;9904;52.246;20.898;2024-03-22T08:38:21;100166.41;;;7.20;100.00
19520;BME280;9904;52.246;20.898;2024-03-22T08:40:47;100171.13;;;7.28;100.00
19520;BME280;9904;52.246;20.898;2024-03-22T08:43:12;100155.84;;;7.28;100.00
19520;BME280;9904;52.246;20.898;2024-03-22T08:45:38;100150.81;;;7.45;100.00
19520;BME280;9904;52.246;20.898;2024-03-22T08:48:04;100161.66;;;7.55;100.00
19520;BME280;9904;52.246;20.898;2024-03-22T08:50:30;100163.00;;;7.39;100.00
19520;BME280;9904;52.246;20.898;2024-03-22T08:52:56;100161.28;;;7.38;100.00
19520;BME280;9904;52.246;20.898;2024-03-22T08:55:22;100165.00;;;7.47;100.00
19520;BME280;9904;52.246;20.898;2024-03-22T08:57:47;100156.00;;;7.37;100.00
19520;BME280;9904;52.246;20.898;2024-03-22T09:00:14;100154.91;;;7.39;100.00
19520;BME280;9904;52.246;20.898;2024-03-22T09:02:39;100158.41;;;7.61;100.00
19520;BME280;9904;52.246;20.898;2024-03-22T09:05:05;100149.00;;;7.86;100.00
19520;BME280;9904;52.246;20.898;2024-03-22T09:07:31;100159.38;;;7.91;100.00
19520;BME280;9904;52.246;20.898;2024-03-22T09:09:57;100153.97;;;7.91;100.00
19520;BME280;9904;52.246;20.898;2024-03-22T09:12:22;100149.44;;;8.01;100.00
19520;BME280;9904;52.246;20.898;2024-03-22T09:14:48;100158.66;;;7.99;100.00
19520;BME280;9904;52.246;20.898;2024-03-22T09:17:13;100157.53;;;8.01;100.00
19520;BME280;9904;52.246;20.898;2024-03-22T09:19:39;100150.91;;;8.15;100.00
19520;BME280;9904;52.246;20.898;2024-03-22T09:22:05;100149.66;;;8.19;100.00
19520;BME280;9904;52.246;20.898;2024-03-22T09:24:31;100155.75;;;8.21;100.00
19520;BME280;9904;52.246;20.898;2024-03-22T09:26:56;100146.34;;;8.16;100.00
19520;BME280;9904;52.246;20.898;2024-03-22T09:29:22;100143.56;;;8.37;100.00
19520;BME280;9904;52.246;20.898;2024-03-22T09:31:48;100138.16;;;8.27;100.00
19520;BME280;9904;52.246;20.898;2024-03-22T09:34:16;100145.19;;;7.99;100.00
19520;BME280;9904;52.246;20.898;2024-03-22T09:36:42;100139.81;;;7.99;100.00
19520;BME280;9904;52.246;20.898;2024-03-22T09:39:07;100131.25;;;7.84;100.00
19520;BME280;9904;52.246;20.898;2024-03-22T09:41:42;100132.59;;;7.99;100.00
19520;BME280;9904;52.246;20.898;2024-03-22T09:44:12;100135.28;;;8.09;100.00
19520;BME280;9904;52.246;20.898;2024-03-22T09:46:39;100129.50;;;8.14;100.00
19520;BME280;9904;52.246;20.898;2024-03-22T09:49:06;100131.06;;;8.16;100.00
19520;BME280;9904;52.246;20.898;2024-03-22T09:51:33;100122.53;;;8.11;100.00
19520;BME280;9904;52.246;20.898;2024-03-22T09:54:00;100123.69;;;8.18;100.00
19520;BME280;9904;52.246;20.898;2024-03-22T09:56:27;100125.50;;;8.08;100.00
19520;BME280;9904;52.246;20.898;2024-03-22T09:58:54;100121.75;;;7.89;100.00
19520;BME280;9904;52.246;20.898;2024-03-22T10:01:20;100123.63;;;7.99;100.00
19520;BME280;9904;52.246;20.898;2024-03-22T10:03:47;100122.50;;;8.01;100.00
19520;BME280;9904;52.246;20.898;2024-03-22T10:06:14;100120.53;;;8.03;100.00
19520;BME280;9904;52.246;20.898;2024-03-22T10:08:39;100115.28;;;8.02;100.00
19520;BME280;9904;52.246;20.898;2024-03-22T10:11:05;100114.41;;;8.01;100.00
19520;BME280;9904;52.246;20.898;2024-03-22T10:13:30;100104.50;;;8.21;100.00
19520;BME280;9904;52.246;20.898;2024-03-22T10:15:57;100104.38;;;8.33;100.00
19520;BME280;9904;52.246;20.898;2024-03-22T10:18:23;100105.53;;;8.30;100.00
19520;BME280;9904;52.246;20.898;2024-03-22T10:20:59;100106.22;;;8.22;100.00
19520;BME280;9904;52.246;20.898;2024-03-22T10:23:25;100104.09;;;8.26;100.00
19520;BME280;9904;52.246;20.898;2024-03-22T10:25:51;100105.22;;;8.23;100.00
19520;BME280;9904;52.246;20.898;2024-03-22T10:28:16;100104.34;;;8.03;100.00
19520;BME280;9904;52.246;20.898;2024-03-22T10:30:43;100103.09;;;8.17;100.00
19520;BME280;9904;52.246;20.898;2024-03-22T10:33:10;100097.38;;;7.91;100.00
19520;BME280;9904;52.246;20.898;2024-03-22T10:35:36;100095.34;;;7.73;100.00
19520;BME280;9904;52.246;20.898;2024-03-22T10:38:03;100099.41;;;7.58;100.00
19520;BME280;9904;52.246;20.898;2024-03-22T10:40:29;100092.59;;;7.54;100.00
19520;BME280;9904;52.246;20.898;2024-03-22T10:42:55;100088.91;;;7.55;100.00
19520;BME280;9904;52.246;20.898;2024-03-22T10:45:22;100087.09;;;7.65;100.00
19520;BME280;9904;52.246;20.898;2024-03-22T10:47:52;100083.59;;;7.74;100.00
19520;BME280;9904;52.246;20.898;2024-03-22T10:50:20;100088.53;;;7.69;100.00
19520;BME280;9904;52.246;20.898;2024-03-22T10:52:52;100080.56;;;7.68;100.00
19520;BME280;9904;52.246;20.898;2024-03-22T10:55:26;100080.28;;;7.61;100.00
19520;BME280;9904;52.246;20.898;2024-03-22T10:57:56;100074.66;;;7.74;100.00
19520;BME280;9904;52.246;20.898;2024-03-22T11:02:55;100074.28;;;8.18;100.00
19520;BME280;9904;52.246;20.898;2024-03-22T11:05:20;100067.63;;;8.22;100.00
19520;BME280;9904;52.246;20.898;2024-03-22T11:07:46;100060.94;;;8.36;100.00
19520;BME280;9904;52.246;20.898;2024-03-22T11:10:12;100059.81;;;8.68;100.00
19520;BME280;9904;52.246;20.898;2024-03-22T11:12:39;100058.09;;;8.67;100.00
19520;BME280;9904;52.246;20.898;2024-03-22T11:15:05;100061.22;;;8.62;100.00
19520;BME280;9904;52.246;20.898;2024-03-22T11:17:31;100053.84;;;8.64;100.00
19520;BME280;9904;52.246;20.898;2024-03-22T11:19:56;100056.81;;;8.41;100.00
19520;BME280;9904;52.246;20.898;2024-03-22T11:22:22;100051.13;;;8.35;100.00
19520;BME280;9904;52.246;20.898;2024-03-22T11:24:48;100050.03;;;8.37;100.00
19520;BME280;9904;52.246;20.898;2024-03-22T11:27:13;100053.31;;;8.51;100.00
19520;BME280;9904;52.246;20.898;2024-03-22T11:29:39;100045.75;;;8.45;100.00
19520;BME280;9904;52.246;20.898;2024-03-22T11:32:07;100050.16;;;8.36;100.00
19520;BME280;9904;52.246;20.898;2024-03-22T11:34:36;100040.22;;;8.36;100.00
19520;BME280;9904;52.246;20.898;2024-03-22T11:37:03;100035.97;;;8.34;100.00
19520;BME280;9904;52.246;20.898;2024-03-22T11:39:29;100032.00;;;8.38;100.00
19520;BME280;9904;52.246;20.898;2024-03-22T11:41:54;100035.41;;;8.40;100.00
19520;BME280;9904;52.246;20.898;2024-03-22T11:44:22;100021.91;;;8.40;100.00
19520;BME280;9904;52.246;20.898;2024-03-22T11:46:51;100028.88;;;8.43;100.00
19520;BME280;9904;52.246;20.898;2024-03-22T11:49:17;100029.56;;;8.45;100.00
19520;BME280;9904;52.246;20.898;2024-03-22T11:51:45;100026.91;;;8.54;99.02
19520;BME280;9904;52.246;20.898;2024-03-22T11:54:10;100030.72;;;8.62;97.53
19520;BME280;9904;52.246;20.898;2024-03-22T11:56:36;100017.50;;;8.68;95.56
19520;BME280;9904;52.246;20.898;2024-03-22T11:59:02;100028.00;;;8.71;94.39
19520;BME280;9904;52.246;20.898;2024-03-22T12:01:29;100021.75;;;8.71;94.39
19520;BME280;9904;52.246;20.898;2024-03-22T12:03:55;100019.88;;;8.81;94.19
19520;BME280;9904;52.246;20.898;2024-03-22T12:06:21;100024.44;;;8.81;94.35
19520;BME280;9904;52.246;20.898;2024-03-22T12:08:47;100020.72;;;8.82;94.45
19520;BME280;9904;52.246;20.898;2024-03-22T12:11:13;100022.88;;;8.78;94.75
19520;BME280;9904;52.246;20.898;2024-03-22T12:13:39;100025.56;;;8.78;94.15
19520;BME280;9904;52.246;20.898;2024-03-22T12:16:06;100019.06;;;8.71;94.32
19520;BME280;9904;52.246;20.898;2024-03-22T12:18:32;100018.34;;;8.69;94.66
19520;BME280;9904;52.246;20.898;2024-03-22T12:20:58;100007.56;;;8.59;95.57
19520;BME280;9904;52.246;20.898;2024-03-22T12:23:24;100003.19;;;8.58;95.44
19520;BME280;9904;52.246;20.898;2024-03-22T12:25:51;100004.84;;;8.69;96.01
19520;BME280;9904;52.246;20.898;2024-03-22T12:28:26;100005.69;;;8.79;95.18
19520;BME280;9904;52.246;20.898;2024-03-22T12:30:52;99993.47;;;8.75;95.19
19520;BME280;9904;52.246;20.898;2024-03-22T12:33:17;99985.34;;;8.85;94.02
19520;BME280;9904;52.246;20.898;2024-03-22T12:35:43;99984.78;;;8.91;93.09
19520;BME280;9904;52.246;20.898;2024-03-22T12:38:09;99983.03;;;9.00;92.87
19520;BME280;9904;52.246;20.898;2024-03-22T12:40:37;99977.31;;;9.03;92.90
19520;BME280;9904;52.246;20.898;2024-03-22T12:43:04;99982.25;;;9.17;91.72
19520;BME280;9904;52.246;20.898;2024-03-22T12:45:29;99979.00;;;9.04;92.43